sensor_id;sensor_type;location;lat;lon;timestamp;P1;durP1;ratioP1;P2;durP2;ratioP2
3959;SDS011;1994;48.640;8.894;2023-05-23T00:01:44;6.40;;;5.77;;
3959;SDS011;1994;48.640;8.894;2023-05-23T00:04:10;7.37;;;6.67;;
3959;SDS011;1994;48.640;8.894;2023-05-23T00:06:41;9.67;;;6.70;;
3959;SDS011;1994;48.640;8.894;2023-05-23T00:09:10;8.67;;;6.33;;
3959;SDS011;1994;48.640;8.894;2023-05-23T00:11:40;11.43;;;6.43;;
3959;SDS011;1994;48.640;8.894;2023-05-23T00:14:10;10.37;;;6.50;;
3959;SDS011;1994;48.640;8.894;2023-05-23T00:16:37;7.60;;;6.23;;
3959;SDS011;1994;48.640;8.894;2023-05-23T00:19:05;7.50;;;6.80;;
3959;SDS011;1994;48.640;8.894;2023-05-23T00:21:32;8.93;;;7.60;;
3959;SDS011;1994;48.640;8.894;2023-05-23T00:23:57;8.60;;;7.07;;
3959;SDS011;1994;48.640;8.894;2023-05-23T00:26:23;9.00;;;7.20;;
3959;SDS011;1994;48.640;8.894;2023-05-23T00:28:49;13.03;;;7.60;;
3959;SDS011;1994;48.640;8.894;2023-05-23T00:31:15;7.53;;;6.83;;
3959;SDS011;1994;48.640;8.894;2023-05-23T00:33:41;13.10;;;7.70;;
3959;SDS011;1994;48.640;8.894;2023-05-23T00:36:07;6.60;;;5.93;;
3959;SDS011;1994;48.640;8.894;2023-05-23T00:38:33;10.70;;;6.77;;
3959;SDS011;1994;48.640;8.894;2023-05-23T00:40:59;8.50;;;7.43;;
3959;SDS011;1994;48.640;8.894;2023-05-23T00:43:26;12.13;;;7.80;;
3959;SDS011;1994;48.640;8.894;2023-05-23T00:45:51;18.07;;;9.63;;
3959;SDS011;1994;48.640;8.894;2023-05-23T00:48:17;13.27;;;8.57;;
3959;SDS011;1994;48.640;8.894;2023-05-23T00:50:43;9.60;;;8.60;;
3959;SDS011;1994;48.640;8.894;2023-05-23T00:53:10;12.00;;;9.93;;
3959;SDS011;1994;48.640;8.894;2023-05-23T00:55:37;13.00;;;8.93;;
3959;SDS011;1994;48.640;8.894;2023-05-23T00:58:03;14.33;;;9.70;;
3959;SDS011;1994;48.640;8.894;2023-05-23T01:00:29;10.80;;;8.97;;
3959;SDS011;1994;48.640;8.894;2023-05-23T01:02:56;16.30;;;10.07;;
3959;SDS011;1994;48.640;8.894;2023-05-23T01:05:21;15.50;;;9.70;;
3959;SDS011;1994;48.640;8.894;2023-05-23T01:07:49;11.93;;;9.63;;
3959;SDS011;1994;48.640;8.894;2023-05-23T01:10:16;13.10;;;9.47;;
3959;SDS011;1994;48.640;8.894;2023-05-23T01:13:05;15.23;;;9.97;;
3959;SDS011;1994;48.640;8.894;2023-05-23T01:15:49;19.60;;;10.60;;
3959;SDS011;1994;48.640;8.894;2023-05-23T01:18:50;14.57;;;10.60;;
3959;SDS011;1994;48.640;8.894;2023-05-23T01:21:22;12.80;;;9.37;;
3959;SDS011;1994;48.640;8.894;2023-05-23T01:24:14;18.83;;;9.17;;
3959;SDS011;1994;48.640;8.894;2023-05-23T01:29:57;14.20;;;11.13;;
3959;SDS011;1994;48.640;8.894;2023-05-23T01:32:26;16.50;;;11.50;;
3959;SDS011;1994;48.640;8.894;2023-05-23T01:34:53;17.57;;;11.57;;
3959;SDS011;1994;48.640;8.894;2023-05-23T01:37:19;17.17;;;12.17;;
3959;SDS011;1994;48.640;8.894;2023-05-23T01:39:45;15.50;;;10.47;;
3959;SDS011;1994;48.640;8.894;2023-05-23T01:42:11;17.40;;;12.50;;
3959;SDS011;1994;48.640;8.894;2023-05-23T01:44:38;19.77;;;13.27;;
3959;SDS011;1994;48.640;8.894;2023-05-23T01:47:05;21.50;;;14.17;;
3959;SDS011;1994;48.640;8.894;2023-05-23T01:49:34;22.70;;;14.03;;
3959;SDS011;1994;48.640;8.894;2023-05-23T01:52:01;21.80;;;13.87;;
3959;SDS011;1994;48.640;8.894;2023-05-23T01:54:28;21.67;;;13.63;;
3959;SDS011;1994;48.640;8.894;2023-05-23T01:56:56;24.70;;;14.00;;
3959;SDS011;1994;48.640;8.894;2023-05-23T01:59:22;31.53;;;16.07;;
3959;SDS011;1994;48.640;8.894;2023-05-23T02:01:49;27.50;;;15.37;;
3959;SDS011;1994;48.640;8.894;2023-05-23T02:04:15;24.33;;;16.10;;
3959;SDS011;1994;48.640;8.894;2023-05-23T02:06:40;25.77;;;15.73;;
3959;SDS011;1994;48.640;8.894;2023-05-23T02:09:06;26.93;;;19.27;;
3959;SDS011;1994;48.640;8.894;2023-05-23T02:11:32;33.50;;;20.73;;
3959;SDS011;1994;48.640;8.894;2023-05-23T02:13:59;47.07;;;24.60;;
3959;SDS011;1994;48.640;8.894;2023-05-23T02:16:26;45.23;;;24.60;;
3959;SDS011;1994;48.640;8.894;2023-05-23T02:18:52;48.57;;;26.40;;
3959;SDS011;1994;48.640;8.894;2023-05-23T02:21:20;46.87;;;24.33;;
3959;SDS011;1994;48.640;8.894;2023-05-23T02:23:47;49.00;;;27.63;;
3959;SDS011;1994;48.640;8.894;2023-05-23T02:26:13;48.67;;;27.10;;
3959;SDS011;1994;48.640;8.894;2023-05-23T02:28:40;48.70;;;26.10;;
3959;SDS011;1994;48.640;8.894;2023-05-23T02:31:06;52.60;;;27.40;;
3959;SDS011;1994;48.640;8.894;2023-05-23T02:33:31;46.80;;;26.10;;
3959;SDS011;1994;48.640;8.894;2023-05-23T02:35:57;52.27;;;29.70;;
3959;SDS011;1994;48.640;8.894;2023-05-23T02:38:23;44.20;;;26.57;;
3959;SDS011;1994;48.640;8.894;2023-05-23T02:40:50;44.00;;;26.53;;
3959;SDS011;1994;48.640;8.894;2023-05-23T02:43:17;47.90;;;27.67;;
3959;SDS011;1994;48.640;8.894;2023-05-23T02:45:44;56.33;;;27.20;;
3959;SDS011;1994;48.640;8.894;2023-05-23T02:48:09;53.30;;;27.30;;
3959;SDS011;1994;48.640;8.894;2023-05-23T02:50:36;42.90;;;26.60;;
3959;SDS011;1994;48.640;8.894;2023-05-23T02:53:02;48.17;;;25.60;;
3959;SDS011;1994;48.640;8.894;2023-05-23T02:55:28;43.87;;;25.60;;
3959;SDS011;1994;48.640;8.894;2023-05-23T02:57:55;43.87;;;27.97;;
3959;SDS011;1994;48.640;8.894;2023-05-23T03:00:25;46.93;;;27.90;;
3959;SDS011;1994;48.640;8.894;2023-05-23T03:02:51;50.67;;;27.27;;
3959;SDS011;1994;48.640;8.894;2023-05-23T03:05:17;44.73;;;27.27;;
3959;SDS011;1994;48.640;8.894;2023-05-23T03:07:43;53.13;;;26.43;;
3959;SDS011;1994;48.640;8.894;2023-05-23T03:10:09;42.37;;;25.60;;
3959;SDS011;1994;48.640;8.894;2023-05-23T03:12:35;43.33;;;25.40;;
3959;SDS011;1994;48.640;8.894;2023-05-23T03:15:01;47.70;;;25.90;;
3959;SDS011;1994;48.640;8.894;2023-05-23T03:17:28;45.97;;;25.97;;
3959;SDS011;1994;48.640;8.894;2023-05-23T03:19:53;41.73;;;25.57;;
3959;SDS011;1994;48.640;8.894;2023-05-23T03:22:19;36.63;;;24.27;;
3959;SDS011;1994;48.640;8.894;2023-05-23T03:24:45;46.43;;;25.17;;
3959;SDS011;1994;48.640;8.894;2023-05-23T03:27:11;45.93;;;25.40;;
3959;SDS011;1994;48.640;8.894;2023-05-23T03:29:37;37.43;;;24.10;;
3959;SDS011;1994;48.640;8.894;2023-05-23T03:32:02;43.37;;;23.63;;
3959;SDS011;1994;48.640;8.894;2023-05-23T03:34:29;44.30;;;24.60;;
3959;SDS011;1994;48.640;8.894;2023-05-23T03:36:56;40.40;;;24.07;;
3959;SDS011;1994;48.640;8.894;2023-05-23T03:39:22;43.63;;;27.27;;
3959;SDS011;1994;48.640;8.894;2023-05-23T03:41:49;42.00;;;28.27;;
3959;SDS011;1994;48.640;8.894;2023-05-23T03:44:14;42.00;;;25.90;;
3959;SDS011;1994;48.640;8.894;2023-05-23T03:46:40;43.57;;;24.17;;
3959;SDS011;1994;48.640;8.894;2023-05-23T03:49:06;39.40;;;24.30;;
3959;SDS011;1994;48.640;8.894;2023-05-23T03:51:32;48.73;;;26.27;;
3959;SDS011;1994;48.640;8.894;2023-05-23T03:53:58;41.33;;;24.70;;
3959;SDS011;1994;48.640;8.894;2023-05-23T03:56:24;40.53;;;24.00;;
3959;SDS011;1994;48.640;8.894;2023-05-23T03:58:50;39.90;;;25.90;;
3959;SDS011;1994;48.640;8.894;2023-05-23T04:01:16;40.20;;;24.00;;
3959;SDS011;1994;48.640;8.894;2023-05-23T04:03:41;37.80;;;23.40;;
3959;SDS011;1994;48.640;8.894;2023-05-23T04:06:07;38.00;;;23.70;;
3959;SDS011;1994;48.640;8.894;2023-05-23T04:08:33;34.00;;;23.80;;
3959;SDS011;1994;48.640;8.894;2023-05-23T04:10:59;35.17;;;22.00;;
3959;SDS011;1994;48.640;8.894;2023-05-23T04:13:28;41.80;;;23.00;;
3959;SDS011;1994;48.640;8.894;2023-05-23T04:15:55;34.33;;;23.30;;
3959;SDS011;1994;48.640;8.894;2023-05-23T04:18:21;43.73;;;25.60;;
3959;SDS011;1994;48.640;8.894;2023-05-23T04:20:47;36.60;;;24.33;;
3959;SDS011;1994;48.640;8.894;2023-05-23T04:23:13;38.30;;;22.50;;
3959;SDS011;1994;48.640;8.894;2023-05-23T04:25:39;33.30;;;21.80;;
3959;SDS011;1994;48.640;8.894;2023-05-23T04:28:04;36.20;;;21.60;;
3959;SDS011;1994;48.640;8.894;2023-05-23T04:30:31;40.63;;;25.00;;
3959;SDS011;1994;48.640;8.894;2023-05-23T04:32:57;40.70;;;21.80;;
3959;SDS011;1994;48.640;8.894;2023-05-23T04:35:23;35.40;;;22.17;;
3959;SDS011;1994;48.640;8.894;2023-05-23T04:37:52;38.40;;;23.00;;
3959;SDS011;1994;48.640;8.894;2023-05-23T04:40:21;37.43;;;23.50;;
3959;SDS011;1994;48.640;8.894;2023-05-23T04:42:48;35.53;;;22.37;;
3959;SDS011;1994;48.640;8.894;2023-05-23T04:45:15;34.70;;;21.83;;
3959;SDS011;1994;48.640;8.894;2023-05-23T04:47:44;34.43;;;22.90;;
3959;SDS011;1994;48.640;8.894;2023-05-23T04:50:11;36.00;;;22.70;;
3959;SDS011;1994;48.640;8.894;2023-05-23T04:52:39;37.20;;;21.73;;
3959;SDS011;1994;48.640;8.894;2023-05-23T04:55:05;40.13;;;21.63;;
3959;SDS011;1994;48.640;8.894;2023-05-23T04:57:32;32.20;;;22.53;;
3959;SDS011;1994;48.640;8.894;2023-05-23T04:59:59;29.53;;;23.07;;
3959;SDS011;1994;48.640;8.894;2023-05-23T05:02:25;36.33;;;22.97;;
3959;SDS011;1994;48.640;8.894;2023-05-23T05:04:51;28.60;;;21.00;;
3959;SDS011;1994;48.640;8.894;2023-05-23T05:07:18;35.20;;;23.00;;
3959;SDS011;1994;48.640;8.894;2023-05-23T05:09:44;33.50;;;22.97;;
3959;SDS011;1994;48.640;8.894;2023-05-23T05:12:10;40.57;;;24.10;;
3959;SDS011;1994;48.640;8.894;2023-05-23T05:14:36;39.87;;;23.97;;
3959;SDS011;1994;48.640;8.894;2023-05-23T05:17:02;35.50;;;24.70;;
3959;SDS011;1994;48.640;8.894;2023-05-23T05:19:28;40.07;;;24.80;;
3959;SDS011;1994;48.640;8.894;2023-05-23T05:21:53;35.90;;;23.57;;
3959;SDS011;1994;48.640;8.894;2023-05-23T05:24:19;38.57;;;26.93;;
3959;SDS011;1994;48.640;8.894;2023-05-23T05:26:47;35.83;;;25.60;;
3959;SDS011;1994;48.640;8.894;2023-05-23T05:29:13;33.70;;;23.17;;
3959;SDS011;1994;48.640;8.894;2023-05-23T05:31:40;38.50;;;25.47;;
3959;SDS011;1994;48.640;8.894;2023-05-23T05:34:07;44.53;;;25.57;;
3959;SDS011;1994;48.640;8.894;2023-05-23T05:36:33;36.57;;;25.80;;
3959;SDS011;1994;48.640;8.894;2023-05-23T05:38:58;38.83;;;25.33;;
3959;SDS011;1994;48.640;8.894;2023-05-23T05:41:24;41.03;;;26.57;;
3959;SDS011;1994;48.640;8.894;2023-05-23T05:43:50;38.70;;;25.70;;
3959;SDS011;1994;48.640;8.894;2023-05-23T05:46:16;34.73;;;24.00;;
3959;SDS011;1994;48.640;8.894;2023-05-23T05:48:42;38.27;;;25.20;;
3959;SDS011;1994;48.640;8.894;2023-05-23T05:51:08;33.80;;;23.73;;
3959;SDS011;1994;48.640;8.894;2023-05-23T05:53:33;42.23;;;24.77;;
3959;SDS011;1994;48.640;8.894;2023-05-23T05:55:59;37.00;;;24.90;;
3959;SDS011;1994;48.640;8.894;2023-05-23T05:58:26;39.83;;;24.83;;
3959;SDS011;1994;48.640;8.894;2023-05-23T06:00:52;38.13;;;25.80;;
3959;SDS011;1994;48.640;8.894;2023-05-23T06:03:18;39.17;;;25.87;;
3959;SDS011;1994;48.640;8.894;2023-05-23T06:05:44;33.77;;;23.37;;
3959;SDS011;1994;48.640;8.894;2023-05-23T06:08:10;35.20;;;25.33;;
3959;SDS011;1994;48.640;8.894;2023-05-23T06:10:36;38.10;;;22.87;;
3959;SDS011;1994;48.640;8.894;2023-05-23T06:13:03;35.63;;;20.73;;
3959;SDS011;1994;48.640;8.894;2023-05-23T06:15:29;38.20;;;21.67;;
3959;SDS011;1994;48.640;8.894;2023-05-23T06:17:55;32.20;;;22.43;;
3959;SDS011;1994;48.640;8.894;2023-05-23T06:20:20;31.83;;;23.90;;
3959;SDS011;1994;48.640;8.894;2023-05-23T06:22:46;42.90;;;26.23;;
3959;SDS011;1994;48.640;8.894;2023-05-23T06:25:12;36.93;;;22.47;;
3959;SDS011;1994;48.640;8.894;2023-05-23T06:27:38;30.90;;;20.70;;
3959;SDS011;1994;48.640;8.894;2023-05-23T06:30:04;34.60;;;21.70;;
3959;SDS011;1994;48.640;8.894;2023-05-23T06:32:31;30.10;;;22.60;;
3959;SDS011;1994;48.640;8.894;2023-05-23T06:34:56;34.70;;;21.50;;
3959;SDS011;1994;48.640;8.894;2023-05-23T06:37:22;35.17;;;22.17;;
3959;SDS011;1994;48.640;8.894;2023-05-23T06:39:49;25.93;;;19.97;;
3959;SDS011;1994;48.640;8.894;2023-05-23T06:42:15;31.33;;;21.47;;
3959;SDS011;1994;48.640;8.894;2023-05-23T06:44:40;31.30;;;21.77;;
3959;SDS011;1994;48.640;8.894;2023-05-23T06:47:06;36.33;;;22.37;;
3959;SDS011;1994;48.640;8.894;2023-05-23T06:49:32;33.93;;;22.20;;
3959;SDS011;1994;48.640;8.894;2023-05-23T06:51:58;36.50;;;22.47;;
3959;SDS011;1994;48.640;8.894;2023-05-23T06:54:23;32.77;;;22.47;;
3959;SDS011;1994;48.640;8.894;2023-05-23T06:56:49;31.60;;;19.07;;
3959;SDS011;1994;48.640;8.894;2023-05-23T06:59:15;35.90;;;20.73;;
3959;SDS011;1994;48.640;8.894;2023-05-23T07:01:41;28.30;;;20.50;;
3959;SDS011;1994;48.640;8.894;2023-05-23T07:04:06;27.87;;;20.47;;
3959;SDS011;1994;48.640;8.894;2023-05-23T07:06:33;24.33;;;20.00;;
3959;SDS011;1994;48.640;8.894;2023-05-23T07:09:00;27.73;;;20.60;;
3959;SDS011;1994;48.640;8.894;2023-05-23T07:11:26;31.57;;;19.87;;
3959;SDS011;1994;48.640;8.894;2023-05-23T07:13:51;27.53;;;20.27;;
3959;SDS011;1994;48.640;8.894;2023-05-23T07:16:17;34.23;;;21.70;;
3959;SDS011;1994;48.640;8.894;2023-05-23T07:18:43;34.30;;;22.20;;
3959;SDS011;1994;48.640;8.894;2023-05-23T07:21:09;26.50;;;19.57;;
3959;SDS011;1994;48.640;8.894;2023-05-23T07:23:34;41.90;;;21.20;;
3959;SDS011;1994;48.640;8.894;2023-05-23T07:26:00;30.30;;;20.77;;
3959;SDS011;1994;48.640;8.894;2023-05-23T07:28:27;24.00;;;18.93;;
3959;SDS011;1994;48.640;8.894;2023-05-23T07:30:53;22.97;;;18.43;;
3959;SDS011;1994;48.640;8.894;2023-05-23T07:33:19;30.60;;;19.13;;
3959;SDS011;1994;48.640;8.894;2023-05-23T07:35:45;24.90;;;19.30;;
3959;SDS011;1994;48.640;8.894;2023-05-23T07:38:10;23.07;;;18.60;;
3959;SDS011;1994;48.640;8.894;2023-05-23T07:40:36;26.53;;;17.77;;
3959;SDS011;1994;48.640;8.894;2023-05-23T07:43:04;28.33;;;18.80;;
3959;SDS011;1994;48.640;8.894;2023-05-23T07:45:30;28.90;;;20.43;;
3959;SDS011;1994;48.640;8.894;2023-05-23T07:47:56;27.40;;;20.90;;
3959;SDS011;1994;48.640;8.894;2023-05-23T07:50:22;25.80;;;19.57;;
3959;SDS011;1994;48.640;8.894;2023-05-23T07:52:48;26.27;;;18.70;;
3959;SDS011;1994;48.640;8.894;2023-05-23T07:55:15;23.10;;;18.63;;
3959;SDS011;1994;48.640;8.894;2023-05-23T07:57:41;22.93;;;17.63;;
3959;SDS011;1994;48.640;8.894;2023-05-23T08:00:07;23.90;;;18.20;;
3959;SDS011;1994;48.640;8.894;2023-05-23T08:02:34;24.63;;;17.10;;
3959;SDS011;1994;48.640;8.894;2023-05-23T08:05:00;25.73;;;17.50;;
3959;SDS011;1994;48.640;8.894;2023-05-23T08:07:26;29.23;;;16.97;;
3959;SDS011;1994;48.640;8.894;2023-05-23T08:09:52;23.40;;;15.73;;
3959;SDS011;1994;48.640;8.894;2023-05-23T08:12:18;24.50;;;15.87;;
3959;SDS011;1994;48.640;8.894;2023-05-23T08:14:43;18.90;;;15.50;;
3959;SDS011;1994;48.640;8.894;2023-05-23T08:17:11;26.47;;;16.30;;
3959;SDS011;1994;48.640;8.894;2023-05-23T08:19:37;19.33;;;14.30;;
3959;SDS011;1994;48.640;8.894;2023-05-23T08:22:03;17.40;;;13.00;;
3959;SDS011;1994;48.640;8.894;2023-05-23T08:24:29;20.50;;;13.80;;
3959;SDS011;1994;48.640;8.894;2023-05-23T08:26:55;16.70;;;13.23;;
3959;SDS011;1994;48.640;8.894;2023-05-23T08:29:21;15.73;;;13.00;;
3959;SDS011;1994;48.640;8.894;2023-05-23T08:31:47;15.50;;;11.73;;
3959;SDS011;1994;48.640;8.894;2023-05-23T08:34:13;14.80;;;12.10;;
3959;SDS011;1994;48.640;8.894;2023-05-23T08:36:39;13.53;;;11.67;;
3959;SDS011;1994;48.640;8.894;2023-05-23T08:39:07;16.37;;;12.13;;
3959;SDS011;1994;48.640;8.894;2023-05-23T08:41:33;14.43;;;11.50;;
3959;SDS011;1994;48.640;8.894;2023-05-23T08:43:59;12.87;;;11.40;;
3959;SDS011;1994;48.640;8.894;2023-05-23T08:46:25;12.80;;;10.23;;
3959;SDS011;1994;48.640;8.894;2023-05-23T08:48:54;13.50;;;9.97;;
3959;SDS011;1994;48.640;8.894;2023-05-23T08:51:26;13.03;;;9.30;;
3959;SDS011;1994;48.640;8.894;2023-05-23T08:53:52;15.90;;;10.17;;
3959;SDS011;1994;48.640;8.894;2023-05-23T08:56:20;12.43;;;10.63;;
3959;SDS011;1994;48.640;8.894;2023-05-23T08:58:49;13.30;;;10.80;;
3959;SDS011;1994;48.640;8.894;2023-05-23T09:01:17;14.83;;;11.73;;
3959;SDS011;1994;48.640;8.894;2023-05-23T09:03:44;15.47;;;11.63;;
3959;SDS011;1994;48.640;8.894;2023-05-23T09:06:11;15.90;;;10.90;;
3959;SDS011;1994;48.640;8.894;2023-05-23T09:08:37;12.13;;;10.00;;
3959;SDS011;1994;48.640;8.894;2023-05-23T09:11:03;14.67;;;11.30;;
3959;SDS011;1994;48.640;8.894;2023-05-23T09:13:31;13.47;;;9.13;;
3959;SDS011;1994;48.640;8.894;2023-05-23T09:18:34;12.63;;;10.40;;
3959;SDS011;1994;48.640;8.894;2023-05-23T09:21:06;12.10;;;9.87;;
3959;SDS011;1994;48.640;8.894;2023-05-23T09:23:34;12.63;;;11.03;;
3959;SDS011;1994;48.640;8.894;2023-05-23T09:26:08;14.10;;;11.00;;
3959;SDS011;1994;48.640;8.894;2023-05-23T09:28:36;13.60;;;10.80;;
3959;SDS011;1994;48.640;8.894;2023-05-23T09:31:03;13.27;;;10.43;;
3959;SDS011;1994;48.640;8.894;2023-05-23T09:33:53;11.20;;;9.70;;
3959;SDS011;1994;48.640;8.894;2023-05-23T09:36:18;13.40;;;10.60;;
3959;SDS011;1994;48.640;8.894;2023-05-23T09:38:45;18.10;;;10.67;;
3959;SDS011;1994;48.640;8.894;2023-05-23T09:41:18;13.10;;;9.40;;
3959;SDS011;1994;48.640;8.894;2023-05-23T09:43:48;11.90;;;10.07;;
3959;SDS011;1994;48.640;8.894;2023-05-23T09:46:19;19.80;;;10.40;;
3959;SDS011;1994;48.640;8.894;2023-05-23T09:48:46;10.97;;;9.77;;
3959;SDS011;1994;48.640;8.894;2023-05-23T09:51:16;16.07;;;10.00;;
3959;SDS011;1994;48.640;8.894;2023-05-23T09:53:45;13.13;;;9.10;;
3959;SDS011;1994;48.640;8.894;2023-05-23T09:56:12;11.43;;;9.60;;
3959;SDS011;1994;48.640;8.894;2023-05-23T09:58:41;14.27;;;10.40;;
3959;SDS011;1994;48.640;8.894;2023-05-23T10:01:12;12.90;;;9.83;;
3959;SDS011;1994;48.640;8.894;2023-05-23T10:09:01;14.73;;;9.30;;
3959;SDS011;1994;48.640;8.894;2023-05-23T10:13:58;12.00;;;8.80;;
3959;SDS011;1994;48.640;8.894;2023-05-23T10:19:37;10.60;;;8.40;;
3959;SDS011;1994;48.640;8.894;2023-05-23T10:22:12;12.00;;;8.90;;
3959;SDS011;1994;48.640;8.894;2023-05-23T10:24:40;8.80;;;7.83;;
3959;SDS011;1994;48.640;8.894;2023-05-23T10:27:09;10.57;;;8.73;;
3959;SDS011;1994;48.640;8.894;2023-05-23T10:29:35;8.83;;;8.03;;
3959;SDS011;1994;48.640;8.894;2023-05-23T10:32:02;10.23;;;8.20;;
3959;SDS011;1994;48.640;8.894;2023-05-23T10:37:48;8.67;;;7.77;;
3959;SDS011;1994;48.640;8.894;2023-05-23T10:45:42;10.07;;;8.40;;
3959;SDS011;1994;48.640;8.894;2023-05-23T10:51:11;10.97;;;7.33;;
3959;SDS011;1994;48.640;8.894;2023-05-23T10:53:45;8.80;;;7.57;;
3959;SDS011;1994;48.640;8.894;2023-05-23T10:56:21;8.00;;;6.50;;
3959;SDS011;1994;48.640;8.894;2023-05-23T10:58:51;11.80;;;9.00;;
3959;SDS011;1994;48.640;8.894;2023-05-23T11:01:18;9.47;;;8.47;;
3959;SDS011;1994;48.640;8.894;2023-05-23T11:09:09;8.10;;;7.30;;
3959;SDS011;1994;48.640;8.894;2023-05-23T11:14:33;8.00;;;7.00;;
3959;SDS011;1994;48.640;8.894;2023-05-23T11:17:17;8.20;;;7.50;;
3959;SDS011;1994;48.640;8.894;2023-05-23T11:22:33;9.90;;;7.70;;
3959;SDS011;1994;48.640;8.894;2023-05-23T11:25:00;8.10;;;7.30;;
3959;SDS011;1994;48.640;8.894;2023-05-23T11:27:34;12.70;;;7.97;;
3959;SDS011;1994;48.640;8.894;2023-05-23T11:32:31;11.10;;;7.43;;
3959;SDS011;1994;48.640;8.894;2023-05-23T11:35:00;8.77;;;6.77;;
3959;SDS011;1994;48.640;8.894;2023-05-23T11:37:28;8.57;;;7.60;;
3959;SDS011;1994;48.640;8.894;2023-05-23T11:39:55;10.90;;;8.43;;
3959;SDS011;1994;48.640;8.894;2023-05-23T11:42:21;8.17;;;6.87;;
3959;SDS011;1994;48.640;8.894;2023-05-23T11:44:49;10.13;;;7.63;;
3959;SDS011;1994;48.640;8.894;2023-05-23T11:47:16;8.07;;;7.37;;
3959;SDS011;1994;48.640;8.894;2023-05-23T11:49:43;10.03;;;6.90;;
3959;SDS011;1994;48.640;8.894;2023-05-23T11:52:11;8.53;;;7.20;;
3959;SDS011;1994;48.640;8.894;2023-05-23T11:54:39;7.17;;;6.47;;
3959;SDS011;1994;48.640;8.894;2023-05-23T11:57:08;7.93;;;7.13;;
3959;SDS011;1994;48.640;8.894;2023-05-23T11:59:35;8.03;;;7.23;;
3959;SDS011;1994;48.640;8.894;2023-05-23T12:02:02;8.70;;;7.50;;
3959;SDS011;1994;48.640;8.894;2023-05-23T12:04:30;14.63;;;6.80;;
3959;SDS011;1994;48.640;8.894;2023-05-23T12:06:56;7.07;;;6.37;;
3959;SDS011;1994;48.640;8.894;2023-05-23T12:09:21;7.80;;;7.00;;
3959;SDS011;1994;48.640;8.894;2023-05-23T12:11:47;5.50;;;5.07;;
3959;SDS011;1994;48.640;8.894;2023-05-23T12:14:14;5.43;;;4.93;;
3959;SDS011;1994;48.640;8.894;2023-05-23T12:16:42;5.70;;;5.07;;
3959;SDS011;1994;48.640;8.894;2023-05-23T12:19:12;5.70;;;5.20;;
3959;SDS011;1994;48.640;8.894;2023-05-23T12:21:41;6.13;;;5.63;;
3959;SDS011;1994;48.640;8.894;2023-05-23T12:24:12;6.10;;;5.07;;
3959;SDS011;1994;48.640;8.894;2023-05-23T12:26:48;5.40;;;4.90;;
3959;SDS011;1994;48.640;8.894;2023-05-23T12:29:32;5.77;;;5.20;;
3959;SDS011;1994;48.640;8.894;2023-05-23T12:32:03;4.90;;;4.30;;
3959;SDS011;1994;48.640;8.894;2023-05-23T12:34:32;3.93;;;3.63;;
3959;SDS011;1994;48.640;8.894;2023-05-23T12:36:58;4.70;;;4.30;;
3959;SDS011;1994;48.640;8.894;2023-05-23T12:39:30;5.07;;;4.70;;
3959;SDS011;1994;48.640;8.894;2023-05-23T12:42:07;4.07;;;3.77;;
3959;SDS011;1994;48.640;8.894;2023-05-23T12:44:33;4.30;;;3.90;;
3959;SDS011;1994;48.640;8.894;2023-05-23T12:47:01;4.13;;;3.67;;
3959;SDS011;1994;48.640;8.894;2023-05-23T12:49:27;4.37;;;3.97;;
3959;SDS011;1994;48.640;8.894;2023-05-23T12:51:53;5.03;;;4.63;;
3959;SDS011;1994;48.640;8.894;2023-05-23T12:54:19;4.40;;;4.10;;
3959;SDS011;1994;48.640;8.894;2023-05-23T12:56:45;7.57;;;4.53;;
3959;SDS011;1994;48.640;8.894;2023-05-23T12:59:10;5.87;;;4.03;;
3959;SDS011;1994;48.640;8.894;2023-05-23T13:01:36;4.70;;;4.40;;
3959;SDS011;1994;48.640;8.894;2023-05-23T13:04:02;3.60;;;3.33;;
3959;SDS011;1994;48.640;8.894;2023-05-23T13:06:28;3.23;;;3.03;;
3959;SDS011;1994;48.640;8.894;2023-05-23T13:08:54;4.27;;;3.90;;
3959;SDS011;1994;48.640;8.894;2023-05-23T13:11:20;4.33;;;4.03;;
3959;SDS011;1994;48.640;8.894;2023-05-23T13:13:46;3.80;;;3.47;;
3959;SDS011;1994;48.640;8.894;2023-05-23T13:16:13;3.80;;;3.30;;
3959;SDS011;1994;48.640;8.894;2023-05-23T13:18:40;3.83;;;3.53;;
3959;SDS011;1994;48.640;8.894;2023-05-23T13:21:06;4.57;;;4.10;;
3959;SDS011;1994;48.640;8.894;2023-05-23T13:23:32;4.13;;;3.80;;
3959;SDS011;1994;48.640;8.894;2023-05-23T13:25:59;4.00;;;3.60;;
3959;SDS011;1994;48.640;8.894;2023-05-23T13:28:25;3.93;;;3.63;;
3959;SDS011;1994;48.640;8.894;2023-05-23T13:30:51;3.63;;;3.43;;
3959;SDS011;1994;48.640;8.894;2023-05-23T13:33:18;3.37;;;3.10;;
3959;SDS011;1994;48.640;8.894;2023-05-23T13:35:45;4.17;;;3.87;;
3959;SDS011;1994;48.640;8.894;2023-05-23T13:38:13;2.70;;;2.50;;
3959;SDS011;1994;48.640;8.894;2023-05-23T13:40:39;3.40;;;3.10;;
3959;SDS011;1994;48.640;8.894;2023-05-23T13:43:04;3.87;;;3.57;;
3959;SDS011;1994;48.640;8.894;2023-05-23T13:45:30;3.77;;;3.47;;
3959;SDS011;1994;48.640;8.894;2023-05-23T13:47:57;3.23;;;3.03;;
3959;SDS011;1994;48.640;8.894;2023-05-23T13:50:23;7.00;;;3.37;;
3959;SDS011;1994;48.640;8.894;2023-05-23T13:52:49;5.57;;;3.93;;
3959;SDS011;1994;48.640;8.894;2023-05-23T13:55:15;3.87;;;3.57;;
3959;SDS011;1994;48.640;8.894;2023-05-23T13:57:42;3.63;;;3.43;;
3959;SDS011;1994;48.640;8.894;2023-05-23T14:00:08;3.40;;;3.10;;
3959;SDS011;1994;48.640;8.894;2023-05-23T14:02:35;4.47;;;3.73;;
3959;SDS011;1994;48.640;8.894;2023-05-23T14:05:01;8.17;;;4.80;;
3959;SDS011;1994;48.640;8.894;2023-05-23T14:07:27;7.77;;;5.47;;
3959;SDS011;1994;48.640;8.894;2023-05-23T14:09:53;7.47;;;4.47;;
3959;SDS011;1994;48.640;8.894;2023-05-23T14:12:19;3.70;;;3.40;;
3959;SDS011;1994;48.640;8.894;2023-05-23T14:14:45;3.60;;;3.30;;
3959;SDS011;1994;48.640;8.894;2023-05-23T14:17:16;3.43;;;3.13;;
3959;SDS011;1994;48.640;8.894;2023-05-23T14:19:42;3.90;;;3.60;;
3959;SDS011;1994;48.640;8.894;2023-05-23T14:22:09;3.37;;;3.17;;
3959;SDS011;1994;48.640;8.894;2023-05-23T14:24:35;3.60;;;3.30;;
3959;SDS011;1994;48.640;8.894;2023-05-23T14:27:01;3.50;;;3.30;;
3959;SDS011;1994;48.640;8.894;2023-05-23T14:29:27;3.10;;;2.90;;
3959;SDS011;1994;48.640;8.894;2023-05-23T14:31:53;3.47;;;3.17;;
3959;SDS011;1994;48.640;8.894;2023-05-23T14:34:19;4.93;;;2.83;;
3959;SDS011;1994;48.640;8.894;2023-05-23T14:36:45;3.20;;;3.00;;
3959;SDS011;1994;48.640;8.894;2023-05-23T14:39:11;3.50;;;3.30;;
3959;SDS011;1994;48.640;8.894;2023-05-23T14:41:37;3.20;;;3.00;;
3959;SDS011;1994;48.640;8.894;2023-05-23T14:44:02;3.97;;;3.37;;
3959;SDS011;1994;48.640;8.894;2023-05-23T14:46:28;3.40;;;3.20;;
3959;SDS011;1994;48.640;8.894;2023-05-23T14:48:54;3.07;;;2.87;;
3959;SDS011;1994;48.640;8.894;2023-05-23T14:51:20;3.63;;;2.67;;
3959;SDS011;1994;48.640;8.894;2023-05-23T14:53:46;3.13;;;2.93;;
3959;SDS011;1994;48.640;8.894;2023-05-23T14:56:11;4.00;;;2.77;;
3959;SDS011;1994;48.640;8.894;2023-05-23T14:58:37;3.10;;;2.90;;
3959;SDS011;1994;48.640;8.894;2023-05-23T15:01:05;3.97;;;3.33;;
3959;SDS011;1994;48.640;8.894;2023-05-23T15:03:31;3.27;;;3.07;;
3959;SDS011;1994;48.640;8.894;2023-05-23T15:05:57;3.93;;;2.90;;
3959;SDS011;1994;48.640;8.894;2023-05-23T15:08:24;2.57;;;2.33;;
3959;SDS011;1994;48.640;8.894;2023-05-23T15:10:49;3.00;;;2.80;;
3959;SDS011;1994;48.640;8.894;2023-05-23T15:13:15;3.17;;;2.97;;
3959;SDS011;1994;48.640;8.894;2023-05-23T15:15:41;3.20;;;3.00;;
3959;SDS011;1994;48.640;8.894;2023-05-23T15:18:07;3.03;;;2.83;;
3959;SDS011;1994;48.640;8.894;2023-05-23T15:20:35;3.33;;;3.03;;
3959;SDS011;1994;48.640;8.894;2023-05-23T15:23:04;4.77;;;4.00;;
3959;SDS011;1994;48.640;8.894;2023-05-23T15:25:30;3.53;;;3.00;;
3959;SDS011;1994;48.640;8.894;2023-05-23T15:27:56;2.90;;;2.70;;
3959;SDS011;1994;48.640;8.894;2023-05-23T15:30:22;3.50;;;2.70;;
3959;SDS011;1994;48.640;8.894;2023-05-23T15:32:48;3.33;;;2.90;;
3959;SDS011;1994;48.640;8.894;2023-05-23T15:35:14;3.20;;;2.97;;
3959;SDS011;1994;48.640;8.894;2023-05-23T15:37:40;3.27;;;3.07;;
3959;SDS011;1994;48.640;8.894;2023-05-23T15:40:07;3.43;;;3.20;;